Time;durP1;ratioP1;P1;durP2;ratioP2;P2;SDS_P1;SDS_P2;PMS_P1;PMS_P2;Temp;Humidity;BMP_temperature;BMP_pressure;BME280_temperature;BME280_humidity;BME280_pressure;Samples;Min_cycle;Max_cycle;Signal;HPM_P1;HPM_P2
2022/11/11 00:00:32;;;;;;;1.10;1.00;;;;;;;-141.59;100.00;61776.25;5083640;28;20250;-82
2022/11/11 00:03:18;;;;;;;3.10;1.43;;;;;;;-141.59;100.00;61776.25;5084473;28;20340;-82
2022/11/11 00:06:06;;;;;;;1.40;1.20;;;;;;;-141.59;100.00;61776.25;5075792;28;20212;-83
2022/11/11 00:08:52;;;;;;;1.73;1.33;;;;;;;-141.59;100.00;61776.25;5084949;28;20208;-83
2022/11/11 00:11:39;;;;;;;1.83;1.37;;;;;;;-141.59;100.00;61776.25;5087966;28;20211;-82
2022/11/11 00:14:25;;;;;;;1.57;1.23;;;;;;;-141.59;100.00;61776.25;5080886;28;20212;-84
2022/11/11 00:26:27;;;;;;;1.70;1.10;;;;;;;-141.59;100.00;61776.25;5079092;28;20204;-82
2022/11/11 00:29:14;;;;;;;2.87;1.13;;;;;;;-141.59;100.00;61776.25;5085920;28;20289;-83
2022/11/11 00:38:09;;;;;;;0.80;0.80;;;;;;;-141.59;100.00;61776.25;5055318;28;20204;-83
2022/11/11 00:40:55;;;;;;;3.77;1.20;;;;;;;-141.59;100.00;61776.25;5068901;28;20271;-83
2022/11/11 00:43:40;;;;;;;1.27;1.00;;;;;;;-141.59;100.00;61776.25;5052854;28;20217;-83
2022/11/11 00:52:45;;;;;;;1.00;0.90;;;;;;;-141.59;100.00;61776.25;5048722;28;20256;-82
2022/11/11 00:55:31;;;;;;;1.60;1.20;;;;;;;-141.59;100.00;61776.25;5058753;28;20209;-82
2022/11/11 00:58:17;;;;;;;1.20;1.03;;;;;;;-141.59;100.00;61776.25;5057044;28;20296;-82
2022/11/11 01:01:02;;;;;;;0.90;0.90;;;;;;;-141.59;100.00;61776.25;5062620;28;20354;-82
2022/11/11 01:03:49;;;;;;;1.00;0.97;;;;;;;-141.59;100.00;61776.25;5065458;28;20213;-82
2022/11/11 01:06:35;;;;;;;1.13;0.90;;;;;;;-141.59;100.00;61776.25;5056223;28;20209;-83
2022/11/11 01:09:21;;;;;;;0.97;0.90;;;;;;;-141.59;100.00;61776.25;5063987;28;20216;-83
2022/11/11 01:12:10;;;;;;;1.20;1.10;;;;;;;-141.59;100.00;61776.25;5063585;28;20217;-83
2022/11/11 01:14:56;;;;;;;1.40;1.10;;;;;;;-141.59;100.00;61776.25;5061443;28;20208;-82
2022/11/11 01:17:41;;;;;;;1.87;1.20;;;;;;;-141.59;100.00;61776.25;5066106;28;20236;-82
2022/11/11 01:20:28;;;;;;;1.10;1.00;;;;;;;-141.59;100.00;61776.25;5065364;28;20232;-83
2022/11/11 01:23:14;;;;;;;1.10;1.00;;;;;;;-141.59;100.00;61776.25;5067942;28;20263;-83
2022/11/11 01:26:05;;;;;;;1.83;1.30;;;;;;;-141.59;100.00;61776.25;5059507;28;20209;-82
2022/11/11 01:28:52;;;;;;;1.10;1.00;;;;;;;-141.59;100.00;61776.25;5058774;28;20228;-82
2022/11/11 01:31:38;;;;;;;1.37;1.03;;;;;;;-141.59;100.00;61776.25;5065255;28;20209;-82
2022/11/11 01:34:23;;;;;;;1.50;1.20;;;;;;;-141.59;100.00;61776.25;5066827;28;20274;-82
2022/11/11 01:37:10;;;;;;;1.40;1.07;;;;;;;-141.59;100.00;61776.25;5076227;28;20216;-82
2022/11/11 01:39:57;;;;;;;1.53;0.90;;;;;;;-141.59;100.00;61776.25;5080644;28;20227;-82
2022/11/11 01:42:53;;;;;;;2.20;1.07;;;;;;;-141.59;100.00;61776.25;5077828;28;20230;-82
2022/11/11 01:45:50;;;;;;;2.53;1.10;;;;;;;-141.59;100.00;61776.25;5077339;28;20260;-83
2022/11/11 01:51:50;;;;;;;1.37;1.17;;;;;;;-141.59;100.00;61776.25;5080947;28;20309;-82
2022/11/11 01:54:41;;;;;;;1.20;1.10;;;;;;;-141.59;100.00;61776.25;5084184;28;20223;-83
2022/11/11 01:57:37;;;;;;;3.70;1.10;;;;;;;-141.59;100.00;61776.25;5087166;28;20208;-83
2022/11/11 02:00:23;;;;;;;1.10;1.00;;;;;;;-141.59;100.00;61776.25;5087104;28;20246;-83
2022/11/11 02:03:10;;;;;;;1.23;1.00;;;;;;;-141.59;100.00;61776.25;5090152;28;20273;-82
2022/11/11 02:05:56;;;;;;;1.97;1.10;;;;;;;-141.59;100.00;61776.25;5081415;28;20216;-82
2022/11/11 02:08:42;;;;;;;2.03;1.00;;;;;;;-141.59;100.00;61776.25;5077240;28;20250;-82
2022/11/11 02:14:42;;;;;;;1.27;1.17;;;;;;;-141.59;100.00;61776.25;5088838;28;20300;-82
2022/11/11 02:17:31;;;;;;;1.17;1.07;;;;;;;-141.59;100.00;61776.25;5087485;28;20327;-82
2022/11/11 02:20:21;;;;;;;1.23;1.07;;;;;;;-141.59;100.00;61776.25;5086510;28;20307;-82
2022/11/11 02:23:11;;;;;;;1.20;1.10;;;;;;;-141.59;100.00;61776.25;5086873;28;20289;-83
2022/11/11 02:26:02;;;;;;;3.10;1.07;;;;;;;-141.59;100.00;61776.25;5079878;28;20217;-82
2022/11/11 02:28:51;;;;;;;0.90;0.90;;;;;;;-141.59;100.00;61776.25;5090199;28;20227;-82
2022/11/11 02:31:37;;;;;;;1.30;1.10;;;;;;;-141.59;100.00;61776.25;5080992;28;20203;-82
2022/11/11 02:34:29;;;;;;;3.70;0.90;;;;;;;-141.59;100.00;61776.25;5087302;28;20230;-82
2022/11/11 02:37:19;;;;;;;1.27;1.17;;;;;;;-141.59;100.00;61776.25;5089055;28;20232;-83
2022/11/11 02:40:08;;;;;;;0.80;0.80;;;;;;;-141.59;100.00;61776.25;5082991;28;20248;-83
2022/11/11 02:42:56;;;;;;;1.53;1.00;;;;;;;-141.59;100.00;61776.25;5086900;28;20240;-82
2022/11/11 02:45:41;;;;;;;1.37;1.10;;;;;;;-141.59;100.00;61776.25;5087658;28;20242;-82
2022/11/11 02:48:27;;;;;;;1.80;1.10;;;;;;;-141.59;100.00;61776.25;5086255;28;20372;-82
2022/11/11 02:51:12;;;;;;;1.17;1.07;;;;;;;-141.59;100.00;61776.25;5088771;28;20227;-82
2022/11/11 02:53:58;;;;;;;1.30;0.90;;;;;;;-141.59;100.00;61776.25;5084843;28;20207;-81
2022/11/11 02:59:49;;;;;;;1.20;1.10;;;;;;;-141.59;100.00;61776.25;5089991;28;20330;-82
2022/11/11 03:02:35;;;;;;;3.17;1.47;;;;;;;-141.59;100.00;61776.25;5084582;28;20251;-82
2022/11/11 03:05:24;;;;;;;1.63;1.00;;;;;;;-141.59;100.00;61776.25;5080779;28;20243;-82
2022/11/11 03:08:10;;;;;;;3.73;2.27;;;;;;;-141.59;100.00;61776.25;5089795;28;20212;-83
2022/11/11 03:10:58;;;;;;;7.33;3.67;;;;;;;-141.59;100.00;61776.25;5082455;28;20209;-83
2022/11/11 03:13:44;;;;;;;0.90;0.80;;;;;;;-141.59;100.00;61776.25;5086813;28;20335;-82
2022/11/11 03:19:34;;;;;;;1.10;1.00;;;;;;;-141.59;100.00;61776.25;5084771;28;20228;-82
2022/11/11 03:22:19;;;;;;;0.90;0.90;;;;;;;-141.59;100.00;61776.25;5082659;28;20213;-82
2022/11/11 03:28:13;;;;;;;2.80;1.37;;;;;;;-141.59;100.00;61776.25;5085543;28;20230;-83
2022/11/11 03:30:59;;;;;;;1.37;1.27;;;;;;;-141.59;100.00;61776.25;5088807;28;20212;-82
2022/11/11 03:33:46;;;;;;;1.37;1.17;;;;;;;-141.59;100.00;61776.25;5083697;28;20240;-81
2022/11/11 03:39:33;;;;;;;1.10;1.00;;;;;;;-141.59;100.00;61776.25;5084935;28;20265;-82
2022/11/11 03:42:19;;;;;;;1.30;1.10;;;;;;;-141.59;100.00;61776.25;5086326;28;20222;-82
2022/11/11 03:45:07;;;;;;;1.50;1.07;;;;;;;-141.59;100.00;61776.25;5084376;28;20212;-83
2022/11/11 03:47:54;;;;;;;1.10;1.00;;;;;;;-141.59;100.00;61776.25;5086354;28;20213;-82
2022/11/11 03:50:41;;;;;;;0.87;0.87;;;;;;;-141.59;100.00;61776.25;5084276;28;20204;-83
2022/11/11 03:53:26;;;;;;;4.67;4.17;;;;;;;-141.59;100.00;61776.25;5088765;28;20207;-82
2022/11/11 03:56:14;;;;;;;3.20;2.90;;;;;;;-141.59;100.00;61776.25;5085450;28;20281;-82
2022/11/11 03:59:00;;;;;;;3.37;2.53;;;;;;;-141.59;100.00;61776.25;5090705;28;20239;-82
2022/11/11 04:10:59;;;;;;;1.97;1.40;;;;;;;-141.59;100.00;61776.25;5087679;28;20215;-82
2022/11/11 04:16:52;;;;;;;1.20;1.10;;;;;;;-141.59;100.00;61776.25;5083426;28;20255;-82
2022/11/11 04:22:42;;;;;;;1.13;1.03;;;;;;;-141.59;100.00;61776.25;5082652;28;20279;-82
2022/11/11 04:31:36;;;;;;;2.67;1.40;;;;;;;-141.59;100.00;61776.25;5082512;28;20215;-82
2022/11/11 04:34:22;;;;;;;1.10;0.90;;;;;;;-141.59;100.00;61776.25;5074833;28;20247;-83
2022/11/11 04:37:09;;;;;;;1.47;1.10;;;;;;;-141.59;100.00;61776.25;5075521;28;20232;-82
2022/11/11 04:42:59;;;;;;;1.10;1.00;;;;;;;-141.59;100.00;61776.25;5075224;28;20232;-81
2022/11/11 04:45:44;;;;;;;1.77;1.10;;;;;;;-141.59;100.00;61776.25;5087552;28;20296;-82
2022/11/11 04:48:30;;;;;;;1.23;1.00;;;;;;;-141.59;100.00;61776.25;5081574;28;20284;-83
2022/11/11 04:51:16;;;;;;;2.07;1.10;;;;;;;-141.59;100.00;61776.25;5082513;28;20315;-82
2022/11/11 04:54:02;;;;;;;1.13;1.03;;;;;;;-141.59;100.00;61776.25;5082517;28;20230;-82
2022/11/11 04:56:49;;;;;;;1.30;1.17;;;;;;;-141.59;100.00;61776.25;5088066;28;20271;-82
2022/11/11 04:59:36;;;;;;;1.10;1.00;;;;;;;-141.59;100.00;61776.25;5085642;28;20238;-82
2022/11/11 05:05:26;;;;;;;3.80;1.57;;;;;;;-141.59;100.00;61776.25;5087716;28;20243;-82
2022/11/11 05:11:17;;;;;;;2.40;1.60;;;;;;;-141.59;100.00;61776.25;5089432;28;20283;-83
2022/11/11 05:23:19;;;;;;;1.60;1.47;;;;;;;-141.59;100.00;61776.25;5094706;28;20310;-82
2022/11/11 05:26:07;;;;;;;1.97;1.50;;;;;;;-141.59;100.00;61776.25;5092341;28;20226;-82
2022/11/11 05:28:53;;;;;;;3.10;1.50;;;;;;;-141.59;100.00;61776.25;5090610;28;20251;-82
2022/11/11 05:31:39;;;;;;;3.23;1.90;;;;;;;-141.59;100.00;61776.25;5085633;28;20215;-82
2022/11/11 05:34:26;;;;;;;3.13;2.10;;;;;;;-141.59;100.00;61776.25;5084905;28;20243;-82
2022/11/11 05:37:11;;;;;;;3.53;2.13;;;;;;;-141.59;100.00;61776.25;5088353;28;20251;-82
2022/11/11 05:39:57;;;;;;;2.43;1.60;;;;;;;-141.59;100.00;61776.25;5083717;28;20215;-83
2022/11/11 05:42:43;;;;;;;3.23;2.07;;;;;;;-141.59;100.00;61776.25;5082594;28;20208;-82
2022/11/11 05:45:29;;;;;;;1.40;1.30;;;;;;;-141.59;100.00;61776.25;5075060;28;20292;-82
2022/11/11 05:48:14;;;;;;;5.90;2.23;;;;;;;-141.59;100.00;61776.25;5083180;28;20261;-82
2022/11/11 05:51:01;;;;;;;2.30;1.83;;;;;;;-141.59;100.00;61776.25;5078879;28;20204;-82
2022/11/11 05:53:47;;;;;;;6.90;3.97;;;;;;;-141.59;100.00;61776.25;5090008;28;20288;-84
2022/11/11 05:56:34;;;;;;;6.60;3.50;;;;;;;-141.59;100.00;61776.25;5081866;28;20229;-82
2022/11/11 05:59:21;;;;;;;12.30;7.20;;;;;;;-141.59;100.00;61776.25;5080483;28;20221;-82
2022/11/11 06:02:07;;;;;;;19.40;9.57;;;;;;;-141.59;100.00;61776.25;5090896;28;20223;-83
2022/11/11 06:04:54;;;;;;;6.07;3.80;;;;;;;-141.59;100.00;61776.25;5081938;28;20292;-82
2022/11/11 06:07:41;;;;;;;4.10;2.33;;;;;;;-141.59;100.00;61776.25;5088502;28;20267;-82
2022/11/11 06:10:30;;;;;;;3.23;1.67;;;;;;;-141.59;100.00;61776.25;5080257;28;20289;-84
2022/11/11 06:13:15;;;;;;;2.20;1.80;;;;;;;-141.59;100.00;61776.25;5081933;28;20296;-82
2022/11/11 06:16:02;;;;;;;2.53;2.13;;;;;;;-141.59;100.00;61776.25;5083190;28;20216;-82
2022/11/11 06:18:48;;;;;;;2.67;2.23;;;;;;;-141.59;100.00;61776.25;5082092;28;20224;-83
2022/11/11 06:21:55;;;;;;;2.57;1.80;;;;;;;-141.59;100.00;61776.25;5081952;28;20228;-82
2022/11/11 06:24:41;;;;;;;1.60;1.30;;;;;;;-141.59;100.00;61776.25;5080786;28;20278;-82
2022/11/11 06:27:26;;;;;;;2.70;1.53;;;;;;;-141.59;100.00;61776.25;5083229;28;20228;-83
2022/11/11 06:30:14;;;;;;;2.33;1.40;;;;;;;-141.59;100.00;61776.25;5075979;28;20212;-82
2022/11/11 06:33:00;;;;;;;1.53;1.37;;;;;;;-141.59;100.00;61776.25;5088026;28;20204;-80
2022/11/11 06:35:46;;;;;;;1.40;1.30;;;;;;;-141.59;100.00;61776.25;5082796;28;20200;-81
2022/11/11 06:38:33;;;;;;;2.07;1.57;;;;;;;-141.59;100.00;61776.25;5078860;28;20243;-80
2022/11/11 06:41:24;;;;;;;1.60;1.40;;;;;;;-141.59;100.00;61776.25;5082395;28;20256;-81
2022/11/11 06:44:10;;;;;;;1.50;1.03;;;;;;;-141.59;100.00;61776.25;5083423;28;20255;-81
2022/11/11 06:46:55;;;;;;;1.10;1.00;;;;;;;-141.59;100.00;61776.25;5083065;28;20346;-80
2022/11/11 06:49:41;;;;;;;1.90;1.30;;;;;;;-141.59;100.00;61776.25;5085889;28;20209;-80
2022/11/11 06:52:26;;;;;;;1.20;1.10;;;;;;;-141.59;100.00;61776.25;5082900;28;20213;-80
2022/11/11 06:55:13;;;;;;;0.90;0.90;;;;;;;-141.59;100.00;61776.25;5085175;28;20212;-80
2022/11/11 06:58:06;;;;;;;1.10;1.00;;;;;;;-141.59;100.00;61776.25;5093993;28;20211;-80
2022/11/11 07:00:51;;;;;;;1.40;1.30;;;;;;;-141.59;100.00;61776.25;5083607;28;20219;-80
2022/11/11 07:03:37;;;;;;;3.37;2.60;;;;;;;-141.59;100.00;61776.25;5091320;28;20220;-81
2022/11/11 07:06:22;;;;;;;4.03;3.63;;;;;;;-141.59;100.00;61776.25;5088203;28;20212;-80
2022/11/11 07:09:08;;;;;;;4.27;1.97;;;;;;;-141.59;100.00;61776.25;5086303;28;20228;-80
2022/11/11 07:11:54;;;;;;;2.70;1.70;;;;;;;-141.59;100.00;61776.25;5075650;28;20258;-80
2022/11/11 07:14:43;;;;;;;3.83;2.00;;;;;;;-141.59;100.00;61776.25;5091593;28;20208;-81
2022/11/11 07:17:28;;;;;;;4.03;2.00;;;;;;;-141.59;100.00;61776.25;5079255;28;20200;-81
2022/11/11 07:20:15;;;;;;;3.20;2.27;;;;;;;-141.59;100.00;61776.25;5087553;28;20287;-80
2022/11/11 07:23:01;;;;;;;2.43;1.80;;;;;;;-141.59;100.00;61776.25;5083764;28;20343;-80
2022/11/11 07:25:47;;;;;;;5.10;2.43;;;;;;;-141.59;100.00;61776.25;5086441;28;20255;-81
2022/11/11 07:28:32;;;;;;;4.23;2.43;;;;;;;-141.59;100.00;61776.25;5082494;28;20219;-80
2022/11/11 07:31:19;;;;;;;4.03;2.40;;;;;;;-141.59;100.00;61776.25;5085811;28;20282;-80
2022/11/11 07:34:05;;;;;;;4.03;2.27;;;;;;;-141.59;100.00;61776.25;5085352;28;20203;-81
2022/11/11 07:36:52;;;;;;;8.63;2.87;;;;;;;-141.59;100.00;61776.25;5087634;28;20232;-81
2022/11/11 07:39:38;;;;;;;7.00;2.60;;;;;;;-141.59;100.00;61776.25;5073436;28;20213;-81
2022/11/11 07:42:23;;;;;;;3.47;2.60;;;;;;;-141.59;100.00;61776.25;5089559;28;20243;-80
2022/11/11 07:45:10;;;;;;;5.00;2.57;;;;;;;-141.59;100.00;61776.25;5082471;28;20204;-80
2022/11/11 07:47:57;;;;;;;5.67;2.43;;;;;;;-141.59;100.00;61776.25;5081464;28;20257;-81
2022/11/11 07:50:43;;;;;;;3.33;2.30;;;;;;;-141.59;100.00;61776.25;5086768;28;20208;-80
2022/11/11 07:53:29;;;;;;;9.10;2.20;;;;;;;-141.59;100.00;61776.25;5080612;28;20247;-79
2022/11/11 07:56:15;;;;;;;5.53;2.10;;;;;;;-141.59;100.00;61776.25;5084449;28;20253;-80
2022/11/11 07:59:01;;;;;;;4.90;2.90;;;;;;;-141.59;100.00;61776.25;5081734;28;20247;-81
2022/11/11 08:01:47;;;;;;;4.03;2.80;;;;;;;-141.59;100.00;61776.25;5076114;28;20232;-80
2022/11/11 08:04:34;;;;;;;3.60;2.77;;;;;;;-141.59;100.00;61776.25;5081677;28;20221;-80
2022/11/11 08:07:20;;;;;;;5.53;4.03;;;;;;;-141.59;100.00;61776.25;5085420;28;20286;-80
2022/11/11 08:10:06;;;;;;;7.53;3.27;;;;;;;-141.59;100.00;61776.25;5085102;28;20211;-80
2022/11/11 08:15:58;;;;;;;4.33;2.70;;;;;;;-141.59;100.00;61776.25;5084277;28;20208;-80
2022/11/11 08:18:44;;;;;;;3.30;2.30;;;;;;;-141.59;100.00;61776.25;5085825;28;20261;-82
2022/11/11 08:21:31;;;;;;;4.70;3.07;;;;;;;-141.59;100.00;61776.25;5084520;28;20372;-80
2022/11/11 08:24:17;;;;;;;3.73;2.10;;;;;;;-141.59;100.00;61776.25;5079186;28;20374;-80
2022/11/11 08:27:03;;;;;;;3.20;2.30;;;;;;;-141.59;100.00;61776.25;5095751;28;20227;-81
2022/11/11 08:29:49;;;;;;;4.03;2.10;;;;;;;-141.59;100.00;61776.25;5088091;28;20211;-81
2022/11/11 08:32:35;;;;;;;1.70;1.60;;;;;;;-141.59;100.00;61776.25;5086480;28;20212;-81
2022/11/11 08:35:20;;;;;;;2.20;1.73;;;;;;;-141.59;100.00;61776.25;5084668;28;20207;-80
2022/11/11 08:38:07;;;;;;;3.97;1.50;;;;;;;-141.59;100.00;61776.25;5091001;28;20211;-81
2022/11/11 08:40:53;;;;;;;3.13;1.73;;;;;;;-141.59;100.00;61776.25;5087649;28;20227;-81
2022/11/11 08:43:38;;;;;;;2.57;1.70;;;;;;;-141.59;100.00;61776.25;5084264;28;20216;-81
2022/11/11 08:46:24;;;;;;;2.20;1.40;;;;;;;-141.59;100.00;61776.25;5077161;28;20219;-80
2022/11/11 08:49:12;;;;;;;1.77;1.67;;;;;;;-141.59;100.00;61776.25;5085169;28;20645;-81
2022/11/11 08:51:57;;;;;;;2.07;1.60;;;;;;;-141.59;100.00;61776.25;5078713;28;20211;-81
2022/11/11 08:54:43;;;;;;;2.00;1.70;;;;;;;-141.59;100.00;61776.25;5078462;28;20215;-81
2022/11/11 08:57:29;;;;;;;2.83;1.97;;;;;;;-141.59;100.00;61776.25;5071966;28;20216;-81
2022/11/11 09:00:16;;;;;;;4.53;1.70;;;;;;;-141.59;100.00;61776.25;5088754;28;20322;-81
2022/11/11 09:03:03;;;;;;;2.47;1.73;;;;;;;-141.59;100.00;61776.25;5084586;28;20308;-80
2022/11/11 09:05:49;;;;;;;1.53;1.40;;;;;;;-141.59;100.00;61776.25;5090163;28;20204;-80
2022/11/11 09:08:38;;;;;;;2.73;1.70;;;;;;;-141.59;100.00;61776.25;5088726;28;20215;-83
2022/11/11 09:11:25;;;;;;;1.60;1.40;;;;;;;-141.59;100.00;61776.25;5098520;28;20229;-81
2022/11/11 09:14:11;;;;;;;2.10;1.57;;;;;;;-141.59;100.00;61776.25;5091310;28;20211;-81
2022/11/11 09:16:57;;;;;;;1.27;1.17;;;;;;;-141.59;100.00;61776.25;5091501;28;20306;-81
2022/11/11 09:19:42;;;;;;;2.30;1.37;;;;;;;-141.59;100.00;61776.25;5088365;28;20266;-81
2022/11/11 09:22:28;;;;;;;1.30;1.20;;;;;;;-141.59;100.00;61776.25;5081500;28;20223;-80
2022/11/11 09:25:14;;;;;;;2.07;1.10;;;;;;;-141.59;100.00;61776.25;5080700;28;20218;-81
2022/11/11 09:28:02;;;;;;;1.93;1.10;;;;;;;-141.59;100.00;61776.25;5081382;28;20210;-82
2022/11/11 09:30:48;;;;;;;1.80;1.20;;;;;;;-141.59;100.00;61776.25;5077341;28;20204;-81
2022/11/11 09:33:34;;;;;;;4.80;1.37;;;;;;;-141.59;100.00;61776.25;5086967;28;20369;-81
2022/11/11 09:36:20;;;;;;;2.07;1.30;;;;;;;-141.59;100.00;61776.25;5091550;28;20235;-81
2022/11/11 09:39:06;;;;;;;2.70;1.07;;;;;;;-141.59;100.00;61776.25;5088687;28;20289;-81
2022/11/11 09:41:59;;;;;;;1.67;1.20;;;;;;;-141.59;100.00;61776.25;5088074;28;20251;-80
2022/11/11 09:45:16;;;;;;;3.33;1.33;;;;;;;-141.59;100.00;61776.25;5091221;28;20212;-81
2022/11/11 09:48:18;;;;;;;1.47;1.20;;;;;;;-141.59;100.00;61776.25;5098107;28;20208;-81
2022/11/11 09:51:09;;;;;;;2.33;1.47;;;;;;;-141.59;100.00;61776.25;5098252;28;20281;-80
2022/11/11 09:53:59;;;;;;;1.30;1.20;;;;;;;-141.59;100.00;61776.25;5093906;28;20208;-81
2022/11/11 09:56:46;;;;;;;1.30;1.10;;;;;;;-141.59;100.00;61776.25;5087953;28;20208;-81
2022/11/11 09:59:40;;;;;;;1.20;1.10;;;;;;;-141.59;100.00;61776.25;5084987;28;20255;-81
2022/11/11 10:02:35;;;;;;;2.80;1.20;;;;;;;-141.59;100.00;61776.25;5087134;28;20223;-81
2022/11/11 10:05:26;;;;;;;1.70;1.20;;;;;;;-141.59;100.00;61776.25;5087231;28;20207;-81
2022/11/11 10:08:17;;;;;;;1.77;1.20;;;;;;;-141.59;100.00;61776.25;5090403;28;20262;-81
2022/11/11 10:11:12;;;;;;;1.50;1.20;;;;;;;-141.59;100.00;61776.25;5088922;28;20216;-81
2022/11/11 10:13:58;;;;;;;2.10;1.27;;;;;;;-141.59;100.00;61776.25;5100188;28;20229;-80
2022/11/11 10:16:52;;;;;;;1.23;1.10;;;;;;;-141.59;100.00;61776.25;5097531;28;20207;-81
2022/11/11 10:19:52;;;;;;;2.77;1.27;;;;;;;-141.59;100.00;61776.25;5093389;28;20232;-80
2022/11/11 10:22:41;;;;;;;2.20;1.50;;;;;;;-141.59;100.00;61776.25;5085864;28;20329;-81
2022/11/11 10:25:28;;;;;;;1.23;1.13;;;;;;;-141.59;100.00;61776.25;5092989;28;20314;-81
2022/11/11 10:28:18;;;;;;;1.83;0.90;;;;;;;-141.59;100.00;61776.25;5094549;28;20252;-81
2022/11/11 10:31:10;;;;;;;1.50;1.20;;;;;;;-141.59;100.00;61776.25;5075859;28;20234;-81
2022/11/11 10:34:00;;;;;;;1.43;1.20;;;;;;;-141.59;100.00;61776.25;5082788;28;20204;-80
2022/11/11 10:36:51;;;;;;;3.87;1.27;;;;;;;-141.59;100.00;61776.25;5082253;28;20365;-80
2022/11/11 10:39:47;;;;;;;1.27;1.17;;;;;;;-141.59;100.00;61776.25;5088448;28;20356;-80
2022/11/11 10:42:32;;;;;;;4.77;1.83;;;;;;;-141.59;100.00;61776.25;5092091;28;20235;-81
2022/11/11 10:45:24;;;;;;;3.73;1.23;;;;;;;-141.59;100.00;61776.25;5079150;28;20262;-81
2022/11/11 10:48:16;;;;;;;2.70;1.30;;;;;;;-141.59;100.00;61776.25;5093536;28;20227;-81
2022/11/11 10:51:03;;;;;;;2.63;1.10;;;;;;;-141.59;100.00;61776.25;5095424;28;20204;-81
2022/11/11 10:53:59;;;;;;;2.87;1.27;;;;;;;-141.59;100.00;61776.25;5094782;28;20211;-81
2022/11/11 10:56:52;;;;;;;1.60;1.00;;;;;;;-141.59;100.00;61776.25;5095932;28;20216;-81
2022/11/11 10:59:43;;;;;;;1.60;1.10;;;;;;;-141.59;100.00;61776.25;5091334;28;20220;-82
2022/11/11 11:02:34;;;;;;;1.10;1.00;;;;;;;-141.59;100.00;61776.25;5089587;28;20282;-81
2022/11/11 11:05:25;;;;;;;1.67;1.30;;;;;;;-141.59;100.00;61776.25;5095360;28;20212;-81
2022/11/11 11:08:15;;;;;;;1.30;1.10;;;;;;;-141.59;100.00;61776.25;5091358;28;20277;-81
2022/11/11 11:11:09;;;;;;;2.77;1.00;;;;;;;-141.59;100.00;61776.25;5085906;28;20215;-82
2022/11/11 11:14:00;;;;;;;2.60;1.40;;;;;;;-141.59;100.00;61776.25;5096537;28;20344;-80
2022/11/11 11:16:50;;;;;;;1.30;1.20;;;;;;;-141.59;100.00;61776.25;5092023;28;20304;-82
2022/11/11 11:19:36;;;;;;;3.27;1.30;;;;;;;-141.59;100.00;61776.25;5090947;28;20310;-81
2022/11/11 11:22:21;;;;;;;1.80;1.40;;;;;;;-141.59;100.00;61776.25;5107088;28;20239;-81
2022/11/11 11:25:11;;;;;;;3.37;1.40;;;;;;;-141.59;100.00;61776.25;5084130;28;20211;-81
2022/11/11 11:28:10;;;;;;;5.83;1.70;;;;;;;-141.59;100.00;61776.25;5084240;28;20259;-82
2022/11/11 11:31:00;;;;;;;2.13;1.73;;;;;;;-141.59;100.00;61776.25;5091172;28;20220;-81
2022/11/11 11:33:56;;;;;;;4.77;1.90;;;;;;;-141.59;100.00;61776.25;5088624;28;20205;-82
2022/11/11 11:36:42;;;;;;;2.80;1.83;;;;;;;-141.59;100.00;61776.25;5089042;28;20248;-81
2022/11/11 11:39:39;;;;;;;2.00;1.80;;;;;;;-141.59;100.00;61776.25;5090689;28;20207;-81
2022/11/11 11:42:33;;;;;;;1.63;1.40;;;;;;;-141.59;100.00;61776.25;5090896;28;20236;-81
2022/11/11 11:45:27;;;;;;;3.63;2.13;;;;;;;-141.59;100.00;61776.25;5089399;28;20258;-81
2022/11/11 11:48:27;;;;;;;1.97;1.60;;;;;;;-141.59;100.00;61776.25;5096267;28;20212;-81
2022/11/11 11:51:27;;;;;;;2.00;1.53;;;;;;;-141.59;100.00;61776.25;5093546;28;20207;-80
2022/11/11 11:54:29;;;;;;;2.07;1.50;;;;;;;-141.59;100.00;61776.25;5093510;28;20203;-80
2022/11/11 11:57:36;;;;;;;1.50;1.40;;;;;;;-141.59;100.00;61776.25;5073504;28;20212;-80
2022/11/11 12:00:24;;;;;;;4.37;2.03;;;;;;;-141.59;100.00;61776.25;5090187;28;20208;-80
2022/11/11 12:03:40;;;;;;;2.47;1.60;;;;;;;-141.59;100.00;61776.25;5095038;28;20215;-80
2022/11/11 12:06:35;;;;;;;3.47;1.60;;;;;;;-141.59;100.00;61776.25;5067630;28;20232;-80
2022/11/11 12:09:34;;;;;;;2.20;1.60;;;;;;;-141.59;100.00;61776.25;5095101;28;20232;-80
2022/11/11 12:12:29;;;;;;;3.97;1.70;;;;;;;-141.59;100.00;61776.25;5096924;28;20211;-80
2022/11/11 12:15:27;;;;;;;4.43;1.70;;;;;;;-141.59;100.00;61776.25;5091728;28;20286;-80
2022/11/11 12:18:34;;;;;;;2.07;1.50;;;;;;;-141.59;100.00;61776.25;5094623;28;20227;-80
2022/11/11 12:21:24;;;;;;;4.70;1.83;;;;;;;-141.59;100.00;61776.25;5112763;28;20203;-81
2022/11/11 12:24:22;;;;;;;2.13;1.63;;;;;;;-141.59;100.00;61776.25;5085621;28;20332;-81
2022/11/11 12:27:20;;;;;;;1.73;1.50;;;;;;;-141.59;100.00;61776.25;5092323;28;20219;-81
2022/11/11 12:30:10;;;;;;;2.50;1.73;;;;;;;-141.59;100.00;61776.25;5105530;28;20295;-80
2022/11/11 12:33:14;;;;;;;2.30;1.60;;;;;;;-141.59;100.00;61776.25;5082469;28;20207;-80
2022/11/11 12:36:11;;;;;;;2.10;1.60;;;;;;;-141.59;100.00;61776.25;5094690;28;20231;-82
2022/11/11 12:39:03;;;;;;;2.03;1.33;;;;;;;-141.59;100.00;61776.25;5094223;28;20207;-80
2022/11/11 12:42:02;;;;;;;1.70;1.60;;;;;;;-141.59;100.00;61776.25;5090742;28;20277;-82
2022/11/11 12:44:55;;;;;;;1.90;1.70;;;;;;;-141.59;100.00;61776.25;5072680;28;20224;-81
2022/11/11 12:47:55;;;;;;;2.73;2.00;;;;;;;-141.59;100.00;61776.25;5095102;28;20213;-81
2022/11/11 12:50:49;;;;;;;3.27;1.50;;;;;;;-141.59;100.00;61776.25;5096370;28;20219;-81
2022/11/11 12:53:44;;;;;;;2.10;1.43;;;;;;;-141.59;100.00;61776.25;5089224;28;20219;-80
2022/11/11 12:56:37;;;;;;;2.20;1.50;;;;;;;-141.59;100.00;61776.25;5084784;28;20211;-80
2022/11/11 12:59:34;;;;;;;3.43;1.60;;;;;;;-141.59;100.00;61776.25;5088509;28;20208;-81
2022/11/11 13:02:42;;;;;;;1.60;1.50;;;;;;;-141.59;100.00;61776.25;5088675;28;20324;-81
2022/11/11 13:05:34;;;;;;;3.30;1.37;;;;;;;-141.59;100.00;61776.25;5088222;28;20239;-80
2022/11/11 13:08:51;;;;;;;4.03;1.83;;;;;;;-141.59;100.00;61776.25;5094729;28;20208;-80
2022/11/11 13:11:49;;;;;;;2.20;1.43;;;;;;;-141.59;100.00;61776.25;5087092;28;20237;-81
2022/11/11 13:14:55;;;;;;;2.70;1.60;;;;;;;-141.59;100.00;61776.25;5091319;28;20303;-81
2022/11/11 13:17:41;;;;;;;2.50;1.60;;;;;;;-141.59;100.00;61776.25;5083655;28;20220;-80
2022/11/11 13:20:43;;;;;;;3.40;1.70;;;;;;;-141.59;100.00;61776.25;5084048;28;20258;-80
2022/11/11 13:23:28;;;;;;;2.73;1.87;;;;;;;-141.59;100.00;61776.25;5086499;28;20280;-80
2022/11/11 13:26:27;;;;;;;3.13;1.63;;;;;;;-141.59;100.00;61776.25;5086285;28;20293;-80
2022/11/11 13:29:41;;;;;;;2.57;1.43;;;;;;;-141.59;100.00;61776.25;5088875;28;20212;-80
2022/11/11 13:32:32;;;;;;;1.50;1.40;;;;;;;-141.59;100.00;61776.25;5092656;28;20301;-80
2022/11/11 13:35:25;;;;;;;2.37;1.50;;;;;;;-141.59;100.00;61776.25;5099435;28;20211;-80
2022/11/11 13:38:24;;;;;;;4.93;2.20;;;;;;;-141.59;100.00;61776.25;5093233;28;20254;-81
2022/11/11 13:41:10;;;;;;;6.87;4.67;;;;;;;-141.59;100.00;61776.25;5085165;28;20269;-81
2022/11/11 13:44:00;;;;;;;7.27;2.53;;;;;;;-141.59;100.00;61776.25;5092052;28;20369;-81
2022/11/11 13:46:47;;;;;;;3.63;2.10;;;;;;;-141.59;100.00;61776.25;5096534;28;20237;-80
2022/11/11 13:49:40;;;;;;;6.67;2.13;;;;;;;-141.59;100.00;61776.25;5094977;28;20215;-80
2022/11/11 13:52:31;;;;;;;3.10;1.80;;;;;;;-141.59;100.00;61776.25;5075685;28;20330;-81
2022/11/11 13:55:29;;;;;;;2.40;1.70;;;;;;;-141.59;100.00;61776.25;5077420;28;20217;-81
2022/11/11 13:58:23;;;;;;;3.37;2.10;;;;;;;-141.59;100.00;61776.25;5080176;28;20259;-82
2022/11/11 14:01:12;;;;;;;2.43;1.97;;;;;;;-141.59;100.00;61776.25;5090641;28;20212;-80
2022/11/11 14:04:06;;;;;;;5.50;2.10;;;;;;;-141.59;100.00;61776.25;5098477;28;20236;-81
2022/11/11 14:06:54;;;;;;;6.57;1.80;;;;;;;-141.59;100.00;61776.25;5107253;28;20211;-81
2022/11/11 14:09:57;;;;;;;2.70;1.83;;;;;;;-141.59;100.00;61776.25;5082700;28;20280;-81
2022/11/11 14:12:43;;;;;;;7.97;1.90;;;;;;;-141.59;100.00;61776.25;5091108;28;20212;-80